createdAt,value
2017-05-29T00:00:36.816Z,0
2017-05-29T00:01:17.442Z,0
2017-05-29T00:01:57.968Z,0
2017-05-29T00:02:38.562Z,0
2017-05-29T00:03:19.146Z,0
2017-05-29T00:03:59.724Z,0
2017-05-29T00:04:40.335Z,0
2017-05-29T00:05:20.919Z,0
2017-05-29T00:06:01.529Z,0
2017-05-29T00:06:42.105Z,0
2017-05-29T00:07:22.711Z,0
2017-05-29T00:08:03.308Z,0
2017-05-29T00:08:43.911Z,0
2017-05-29T00:09:24.535Z,0
2017-05-29T00:10:05.168Z,0
2017-05-29T00:10:45.748Z,0
2017-05-29T00:11:26.349Z,0
2017-05-29T00:12:06.933Z,0
2017-05-29T00:12:47.527Z,0
2017-05-29T00:13:28.145Z,0
2017-05-29T00:14:08.725Z,0
2017-05-29T00:14:49.351Z,0
2017-05-29T00:15:29.912Z,0
2017-05-29T00:16:10.499Z,0
2017-05-29T00:16:51.086Z,0
2017-05-29T00:17:31.674Z,0
2017-05-29T00:18:12.250Z,0
2017-05-29T00:18:52.835Z,0
2017-05-29T00:19:33.422Z,0
2017-05-29T00:20:14.007Z,0
2017-05-29T00:20:54.603Z,0
2017-05-29T00:21:35.192Z,0
2017-05-29T00:22:15.762Z,0
2017-05-29T00:22:56.342Z,0
2017-05-29T00:23:36.941Z,0
2017-05-29T00:24:17.539Z,0
2017-05-29T00:24:58.125Z,0
2017-05-29T00:25:38.705Z,0
2017-05-29T00:26:19.289Z,0
2017-05-29T00:26:59.881Z,0
2017-05-29T00:27:40.497Z,0
2017-05-29T00:28:21.079Z,0
2017-05-29T00:29:01.675Z,0
2017-05-29T00:29:42.280Z,0
2017-05-29T00:30:22.869Z,0
2017-05-29T00:31:03.443Z,0
2017-05-29T00:31:44.027Z,0
2017-05-29T00:32:24.630Z,0
2017-05-29T00:33:05.226Z,0
2017-05-29T00:33:45.805Z,0
2017-05-29T00:34:26.385Z,0
2017-05-29T00:35:06.980Z,0
2017-05-29T00:35:47.568Z,0
2017-05-29T00:36:28.175Z,0
2017-05-29T00:37:08.756Z,0
2017-05-29T00:37:49.347Z,0
2017-05-29T00:38:29.940Z,0
2017-05-29T00:39:10.538Z,0
2017-05-29T00:39:51.129Z,0
2017-05-29T00:40:31.724Z,0
2017-05-29T00:41:12.319Z,0
2017-05-29T00:41:52.922Z,0
2017-05-29T00:42:33.507Z,0
2017-05-29T00:43:14.087Z,0
2017-05-29T00:43:54.682Z,0
2017-05-29T00:44:35.278Z,0
2017-05-29T00:45:15.861Z,0
2017-05-29T00:45:56.458Z,0
2017-05-29T00:46:37.050Z,0
2017-05-29T00:47:17.636Z,0
2017-05-29T00:47:58.253Z,0
2017-05-29T00:48:38.850Z,0
2017-05-29T00:49:19.438Z,0
2017-05-29T00:50:00.024Z,0
2017-05-29T00:50:40.644Z,0
2017-05-29T00:51:21.249Z,0
2017-05-29T00:52:01.834Z,0
2017-05-29T00:52:42.433Z,0
2017-05-29T00:53:23.024Z,0
2017-05-29T00:54:03.602Z,0
2017-05-29T00:54:44.178Z,0
2017-05-29T00:55:24.946Z,0
2017-05-29T00:56:05.532Z,0
2017-05-29T00:56:46.112Z,0
2017-05-29T00:57:26.709Z,0
2017-05-29T00:58:07.292Z,0
2017-05-29T00:58:47.882Z,0
2017-05-29T00:59:28.471Z,0
2017-05-29T01:00:09.063Z,0
2017-05-29T01:00:49.711Z,0
2017-05-29T01:01:30.304Z,0
2017-05-29T01:02:10.893Z,0
2017-05-29T01:02:51.496Z,0
2017-05-29T01:03:32.093Z,0
2017-05-29T01:04:12.700Z,0
2017-05-29T01:04:53.273Z,0
2017-05-29T01:05:33.851Z,0
2017-05-29T01:06:14.453Z,0
2017-05-29T01:06:55.040Z,0
2017-05-29T01:07:35.624Z,0
2017-05-29T01:08:16.261Z,0
2017-05-29T01:08:56.790Z,0
2017-05-29T01:09:37.364Z,0
2017-05-29T01:10:17.972Z,0
2017-05-29T01:10:58.567Z,0
2017-05-29T01:11:39.163Z,0
2017-05-29T01:12:19.800Z,0
2017-05-29T01:13:00.362Z,0
2017-05-29T01:13:40.966Z,0
2017-05-29T01:14:21.550Z,0
2017-05-29T01:15:02.127Z,0
2017-05-29T01:15:42.704Z,0
2017-05-29T01:16:23.290Z,0
2017-05-29T01:17:03.898Z,0
2017-05-29T01:17:44.483Z,0
2017-05-29T01:18:25.078Z,0
2017-05-29T01:19:05.657Z,0
2017-05-29T01:19:46.245Z,0
2017-05-29T01:20:26.846Z,0
2017-05-29T01:21:07.437Z,0
2017-05-29T01:21:48.015Z,0
2017-05-29T01:22:28.621Z,0
2017-05-29T01:23:09.215Z,0
2017-05-29T01:23:49.817Z,0
2017-05-29T01:24:30.415Z,0
2017-05-29T01:25:11.002Z,0
2017-05-29T01:25:51.582Z,0
2017-05-29T01:26:32.176Z,0
2017-05-29T01:27:12.773Z,0
2017-05-29T01:27:53.370Z,0
2017-05-29T01:28:33.930Z,0
2017-05-29T01:29:14.536Z,0
2017-05-29T01:29:55.204Z,0
2017-05-29T01:30:35.783Z,0
2017-05-29T01:31:16.379Z,0
2017-05-29T01:31:56.968Z,0
2017-05-29T01:32:37.595Z,0
2017-05-29T01:33:18.227Z,0
2017-05-29T01:33:58.816Z,0
2017-05-29T01:34:39.393Z,0
2017-05-29T01:35:20.008Z,0
2017-05-29T01:36:00.669Z,0
2017-05-29T01:36:41.318Z,0
2017-05-29T01:37:21.916Z,0
2017-05-29T01:38:02.532Z,0
2017-05-29T01:38:43.150Z,0
2017-05-29T01:39:23.708Z,0
2017-05-29T01:40:04.308Z,0
2017-05-29T01:40:44.909Z,0
2017-05-29T01:41:25.499Z,0
2017-05-29T01:42:06.133Z,0
2017-05-29T01:42:46.770Z,0
2017-05-29T01:43:27.345Z,0
2017-05-29T01:44:07.928Z,0
2017-05-29T01:44:48.521Z,0
2017-05-29T01:45:29.104Z,0
2017-05-29T01:46:09.747Z,0
2017-05-29T01:46:50.329Z,0
2017-05-29T01:47:30.967Z,0
2017-05-29T01:48:11.541Z,0
2017-05-29T01:48:52.134Z,0
2017-05-29T01:49:32.728Z,0
2017-05-29T01:50:13.379Z,0
2017-05-29T01:50:53.997Z,0
2017-05-29T01:51:34.598Z,0
2017-05-29T01:52:15.192Z,0
2017-05-29T01:52:55.822Z,0
2017-05-29T01:53:36.483Z,0
2017-05-29T01:54:17.056Z,0
2017-05-29T01:54:57.630Z,0
2017-05-29T01:55:38.257Z,0
2017-05-29T01:56:18.831Z,0
2017-05-29T01:56:59.406Z,0
2017-05-29T01:57:40.022Z,0
2017-05-29T01:58:20.634Z,0
2017-05-29T01:59:01.215Z,0
2017-05-29T01:59:41.791Z,0
2017-05-29T02:00:22.514Z,0
2017-05-29T02:01:03.075Z,0
2017-05-29T02:01:43.659Z,0
2017-05-29T02:02:24.235Z,0
2017-05-29T02:03:04.850Z,0
2017-05-29T02:03:45.431Z,0
2017-05-29T02:04:26.018Z,0
2017-05-29T02:05:06.597Z,0
2017-05-29T02:05:47.179Z,0
2017-05-29T02:06:27.796Z,0
2017-05-29T02:07:08.349Z,0
2017-05-29T02:07:48.946Z,0
2017-05-29T02:08:29.611Z,0
2017-05-29T02:09:10.194Z,0
2017-05-29T02:09:50.808Z,0
2017-05-29T02:10:31.350Z,0
2017-05-29T02:11:11.963Z,0
2017-05-29T02:11:52.566Z,0
2017-05-29T02:12:36.055Z,0
2017-05-29T02:13:16.680Z,0
2017-05-29T02:13:57.272Z,0
2017-05-29T02:14:37.865Z,0
2017-05-29T02:15:18.456Z,0
2017-05-29T02:15:59.085Z,0
2017-05-29T02:16:39.644Z,0
2017-05-29T02:17:20.230Z,0
2017-05-29T02:18:00.929Z,0
2017-05-29T02:18:41.531Z,0
2017-05-29T02:19:22.181Z,0
2017-05-29T02:20:02.751Z,0
2017-05-29T02:20:43.428Z,0
2017-05-29T02:21:23.977Z,0
2017-05-29T02:22:04.593Z,0
2017-05-29T02:22:45.208Z,0
2017-05-29T02:23:25.804Z,0
2017-05-29T02:24:06.423Z,0
2017-05-29T02:24:47.052Z,0
2017-05-29T02:25:27.695Z,0
2017-05-29T02:26:08.287Z,0
2017-05-29T02:26:48.879Z,0
2017-05-29T02:27:29.465Z,0
2017-05-29T02:28:10.053Z,0
2017-05-29T02:28:50.667Z,0
2017-05-29T02:29:31.261Z,0
2017-05-29T02:30:11.868Z,0
2017-05-29T02:30:52.436Z,0
2017-05-29T02:31:33.029Z,0
2017-05-29T02:32:13.631Z,0
2017-05-29T02:32:54.217Z,0
2017-05-29T02:33:34.833Z,0
2017-05-29T02:34:15.426Z,0
2017-05-29T02:34:56.079Z,0
2017-05-29T02:35:36.727Z,0
2017-05-29T02:36:17.310Z,0
2017-05-29T02:36:57.913Z,0
2017-05-29T02:37:38.606Z,0
2017-05-29T02:38:19.239Z,0
2017-05-29T02:38:59.826Z,0
2017-05-29T02:39:40.431Z,0
2017-05-29T02:40:21.132Z,0
2017-05-29T02:41:01.725Z,0
2017-05-29T02:41:42.281Z,0
2017-05-29T02:42:22.932Z,0
2017-05-29T02:43:03.530Z,0
2017-05-29T02:43:44.137Z,0
2017-05-29T02:44:24.737Z,0
2017-05-29T02:45:05.311Z,0
2017-05-29T02:45:45.953Z,0
2017-05-29T02:46:26.639Z,0
2017-05-29T02:47:07.233Z,0
2017-05-29T02:47:47.850Z,0
2017-05-29T02:48:28.441Z,0
2017-05-29T02:49:09.121Z,0
2017-05-29T02:49:49.729Z,0
2017-05-29T02:50:30.341Z,0
2017-05-29T02:51:10.925Z,0
2017-05-29T02:51:51.541Z,0
2017-05-29T02:52:32.133Z,0
2017-05-29T02:53:12.774Z,0
2017-05-29T02:53:53.448Z,0
2017-05-29T02:54:34.048Z,0
2017-05-29T02:55:14.639Z,0
2017-05-29T02:55:55.236Z,0
2017-05-29T02:56:35.822Z,0
2017-05-29T02:57:16.419Z,0
2017-05-29T02:57:57.017Z,0
2017-05-29T02:58:37.624Z,0
2017-05-29T02:59:18.276Z,0
2017-05-29T02:59:58.966Z,0
2017-05-29T03:00:39.579Z,0
2017-05-29T03:01:20.173Z,0
2017-05-29T03:02:00.763Z,0
2017-05-29T03:02:41.396Z,0
2017-05-29T03:03:21.986Z,0
2017-05-29T03:04:02.632Z,0
2017-05-29T03:04:43.264Z,0
2017-05-29T03:05:23.821Z,0
2017-05-29T03:06:04.498Z,0
2017-05-29T03:06:45.159Z,0
2017-05-29T03:07:25.835Z,5
2017-05-29T03:08:06.408Z,5
2017-05-29T03:08:47.047Z,5
2017-05-29T03:09:27.604Z,5
2017-05-29T03:10:08.325Z,5
2017-05-29T03:10:48.961Z,5
2017-05-29T03:11:29.548Z,5
2017-05-29T03:12:10.156Z,5
2017-05-29T03:12:50.783Z,5
2017-05-29T03:13:31.354Z,5
2017-05-29T03:14:11.939Z,5
2017-05-29T03:14:52.555Z,5
2017-05-29T03:15:33.202Z,5
2017-05-29T03:16:13.801Z,5
2017-05-29T03:16:54.428Z,5
2017-05-29T03:17:35.056Z,5
2017-05-29T03:18:15.647Z,5
2017-05-29T03:18:56.271Z,5
2017-05-29T03:19:36.854Z,10
2017-05-29T03:20:17.445Z,10
2017-05-29T03:20:58.043Z,10
2017-05-29T03:21:38.625Z,10
2017-05-29T03:22:19.233Z,10
2017-05-29T03:22:59.842Z,10
2017-05-29T03:23:40.455Z,15
2017-05-29T03:24:21.106Z,15
2017-05-29T03:25:01.651Z,15
2017-05-29T03:25:42.292Z,15
2017-05-29T03:26:22.868Z,15
2017-05-29T03:27:03.472Z,15
2017-05-29T03:27:44.125Z,15
2017-05-29T03:28:24.714Z,15
2017-05-29T03:29:05.409Z,10
2017-05-29T03:29:46.014Z,10
2017-05-29T03:30:26.670Z,10
2017-05-29T03:31:07.394Z,10
2017-05-29T03:31:47.971Z,10
2017-05-29T03:32:28.608Z,15
2017-05-29T03:33:09.200Z,15
2017-05-29T03:33:49.792Z,15
2017-05-29T03:34:30.391Z,15
2017-05-29T03:35:10.984Z,20
2017-05-29T03:35:51.622Z,20
2017-05-29T03:36:32.194Z,20
2017-05-29T03:37:12.791Z,20
2017-05-29T03:37:53.398Z,20
2017-05-29T03:38:34.001Z,20
2017-05-29T03:39:14.603Z,25
2017-05-29T03:39:55.192Z,25
2017-05-29T03:40:35.810Z,25
2017-05-29T03:41:16.399Z,25
2017-05-29T03:41:57.018Z,25
2017-05-29T03:42:37.618Z,30
2017-05-29T03:43:18.222Z,30
2017-05-29T03:43:58.816Z,30
2017-05-29T03:44:39.413Z,30
2017-05-29T03:45:20.020Z,30
2017-05-29T03:46:00.630Z,30
2017-05-29T03:46:41.229Z,30
2017-05-29T03:47:22.083Z,35
2017-05-29T03:48:02.690Z,35
2017-05-29T03:48:43.277Z,35
2017-05-29T03:49:23.884Z,35
2017-05-29T03:50:04.495Z,35
2017-05-29T03:50:45.090Z,35
2017-05-29T03:51:25.678Z,30
2017-05-29T03:52:06.279Z,35
2017-05-29T03:52:46.882Z,35
2017-05-29T03:53:27.460Z,35
2017-05-29T03:54:08.035Z,35
2017-05-29T03:54:48.615Z,35
2017-05-29T03:55:29.188Z,35
2017-05-29T03:56:09.787Z,40
2017-05-29T03:56:50.388Z,40
2017-05-29T03:57:30.975Z,40
2017-05-29T03:58:11.567Z,40
2017-05-29T03:58:52.159Z,40
2017-05-29T03:59:32.743Z,40
2017-05-29T04:00:13.325Z,35
2017-05-29T04:00:53.907Z,35
2017-05-29T04:01:34.510Z,35
2017-05-29T04:02:15.111Z,40
2017-05-29T04:02:55.694Z,40
2017-05-29T04:03:36.302Z,45
2017-05-29T04:04:16.886Z,45
2017-05-29T04:04:57.475Z,50
2017-05-29T04:05:38.054Z,50
2017-05-29T04:06:18.639Z,50
2017-05-29T04:06:59.216Z,55
2017-05-29T04:07:39.803Z,55
2017-05-29T04:08:20.382Z,55
2017-05-29T04:09:00.979Z,55
2017-05-29T04:09:41.567Z,55
2017-05-29T04:10:22.185Z,55
2017-05-29T04:11:02.775Z,55
2017-05-29T04:11:43.381Z,55
2017-05-29T04:12:40.712Z,55
2017-05-29T04:13:21.296Z,55
2017-05-29T04:14:01.884Z,55
2017-05-29T04:14:42.491Z,55
2017-05-29T04:15:23.098Z,55
2017-05-29T04:16:03.695Z,55
2017-05-29T04:16:44.295Z,60
2017-05-29T04:17:24.876Z,60
2017-05-29T04:18:05.550Z,65
2017-05-29T04:18:46.138Z,65
2017-05-29T04:19:26.717Z,65
2017-05-29T04:20:07.325Z,65
2017-05-29T04:20:47.919Z,65
2017-05-29T04:21:28.522Z,70
2017-05-29T04:22:09.118Z,70
2017-05-29T04:22:49.703Z,70
2017-05-29T04:23:30.277Z,70
2017-05-29T04:24:10.930Z,70
2017-05-29T04:24:51.516Z,75
2017-05-29T04:25:32.116Z,75
2017-05-29T04:26:12.696Z,80
2017-05-29T04:26:53.279Z,80
2017-05-29T04:27:33.878Z,80
2017-05-29T04:28:14.458Z,80
2017-05-29T04:28:55.051Z,85
2017-05-29T04:29:35.649Z,85
2017-05-29T04:30:16.229Z,85
2017-05-29T04:30:56.813Z,85
2017-05-29T04:31:37.395Z,90
2017-05-29T04:32:17.972Z,90
2017-05-29T04:32:58.550Z,90
2017-05-29T04:33:39.202Z,90
2017-05-29T04:34:19.791Z,95
2017-05-29T04:35:00.387Z,95
2017-05-29T04:35:40.964Z,95
2017-05-29T04:36:21.558Z,95
2017-05-29T04:37:02.135Z,95
2017-05-29T04:37:42.732Z,95
2017-05-29T04:38:23.318Z,95
2017-05-29T04:39:03.896Z,95
2017-05-29T04:39:44.467Z,95
2017-05-29T04:40:25.050Z,95
2017-05-29T04:41:05.645Z,95
2017-05-29T04:41:46.229Z,95
2017-05-29T04:42:26.838Z,95
2017-05-29T04:43:07.447Z,95
2017-05-29T04:43:48.029Z,95
2017-05-29T04:44:28.617Z,95
2017-05-29T04:45:09.195Z,95
2017-05-29T04:45:49.783Z,95
2017-05-29T04:46:30.395Z,95
2017-05-29T04:47:10.991Z,95
2017-05-29T04:47:51.596Z,95
2017-05-29T04:48:32.195Z,100
2017-05-29T04:49:12.794Z,100
2017-05-29T04:49:53.401Z,100
2017-05-29T04:50:33.985Z,105
2017-05-29T04:51:14.578Z,105
2017-05-29T04:51:55.169Z,105
2017-05-29T04:52:35.745Z,110
2017-05-29T04:53:16.336Z,110
2017-05-29T04:53:56.927Z,115
2017-05-29T04:54:37.494Z,115
2017-05-29T04:55:18.089Z,120
2017-05-29T04:55:58.692Z,120
2017-05-29T04:56:39.275Z,125
2017-05-29T04:57:19.848Z,125
2017-05-29T04:58:00.443Z,125
2017-05-29T04:58:41.044Z,135
2017-05-29T04:59:21.661Z,130
2017-05-29T05:00:02.258Z,135
2017-05-29T05:00:42.860Z,135
2017-05-29T05:01:23.466Z,135
2017-05-29T05:02:04.107Z,135
2017-05-29T05:02:44.714Z,140
2017-05-29T05:03:25.307Z,140
2017-05-29T05:04:05.926Z,140
2017-05-29T05:04:46.516Z,140
2017-05-29T05:05:27.110Z,140
2017-05-29T05:06:07.731Z,140
2017-05-29T05:06:48.342Z,140
2017-05-29T05:07:28.951Z,140
2017-05-29T05:08:09.550Z,145
2017-05-29T05:08:50.140Z,145
2017-05-29T05:09:30.740Z,150
2017-05-29T05:10:11.327Z,150
2017-05-29T05:10:51.933Z,155
2017-05-29T05:11:32.564Z,155
2017-05-29T05:12:13.174Z,155
2017-05-29T05:12:53.765Z,160
2017-05-29T05:13:34.343Z,160
2017-05-29T05:14:14.951Z,165
2017-05-29T05:14:55.565Z,165
2017-05-29T05:15:36.171Z,170
2017-05-29T05:16:16.746Z,175
2017-05-29T05:16:57.360Z,180
2017-05-29T05:17:37.963Z,175
2017-05-29T05:18:18.546Z,175
2017-05-29T05:18:59.130Z,175
2017-05-29T05:19:39.714Z,180
2017-05-29T05:20:20.293Z,180
2017-05-29T05:21:00.877Z,180
2017-05-29T05:21:41.505Z,185
2017-05-29T05:22:22.096Z,185
2017-05-29T05:23:02.700Z,180
2017-05-29T05:23:43.318Z,185
2017-05-29T05:24:23.902Z,195
2017-05-29T05:25:04.492Z,200
2017-05-29T05:25:45.076Z,245
2017-05-29T05:26:25.677Z,410
2017-05-29T05:27:06.289Z,660
2017-05-29T05:27:46.909Z,1045
2017-05-29T05:28:27.507Z,995
2017-05-29T05:29:08.100Z,1155
2017-05-29T05:29:48.692Z,1230
2017-05-29T05:30:29.309Z,1265
2017-05-29T05:31:09.893Z,1235
2017-05-29T05:31:50.491Z,1250
2017-05-29T05:32:31.073Z,1180
2017-05-29T05:33:11.656Z,1130
2017-05-29T05:33:52.264Z,1125
2017-05-29T05:34:32.858Z,1185
2017-05-29T05:35:13.432Z,1255
2017-05-29T05:35:54.021Z,1330
2017-05-29T05:36:34.612Z,1360
2017-05-29T05:37:15.203Z,1340
2017-05-29T05:37:55.800Z,1350
2017-05-29T05:38:36.414Z,1155
2017-05-29T05:39:17.001Z,925
2017-05-29T05:39:57.591Z,915
2017-05-29T05:40:38.175Z,795
2017-05-29T05:41:18.774Z,1035
2017-05-29T05:41:59.366Z,1105
2017-05-29T05:42:39.972Z,1345
2017-05-29T05:43:20.552Z,1375
2017-05-29T05:44:01.160Z,1370
2017-05-29T05:44:41.770Z,1495
2017-05-29T05:45:22.392Z,1475
2017-05-29T05:46:02.991Z,1490
2017-05-29T05:46:43.581Z,1500
2017-05-29T05:47:24.161Z,1445
2017-05-29T05:48:04.736Z,1495
2017-05-29T05:48:45.321Z,1525
2017-05-29T05:49:25.921Z,1475
2017-05-29T05:50:06.527Z,1580
2017-05-29T05:50:47.119Z,1565
2017-05-29T05:51:27.734Z,1610
2017-05-29T05:52:08.329Z,1600
2017-05-29T05:52:48.920Z,1645
2017-05-29T05:53:29.528Z,1580
2017-05-29T05:54:10.116Z,1615
2017-05-29T05:54:50.717Z,1615
2017-05-29T05:55:31.302Z,1680
2017-05-29T05:56:11.906Z,1665
2017-05-29T05:56:52.533Z,1555
2017-05-29T05:57:33.148Z,1535
2017-05-29T05:58:13.771Z,1560
2017-05-29T05:58:54.360Z,1640
2017-05-29T05:59:34.947Z,1645
2017-05-29T06:00:15.549Z,1685
2017-05-29T06:00:56.159Z,1620
2017-05-29T06:01:36.756Z,1600
2017-05-29T06:02:17.348Z,1605
2017-05-29T06:02:57.941Z,1640
2017-05-29T06:03:38.647Z,1670
2017-05-29T06:04:19.296Z,1675
2017-05-29T06:04:59.880Z,1645
2017-05-29T06:05:40.469Z,1690
2017-05-29T06:06:21.056Z,1690
2017-05-29T06:07:01.727Z,1680
2017-05-29T06:07:42.331Z,1485
2017-05-29T06:08:22.949Z,1525
2017-05-29T06:09:03.558Z,1705
2017-05-29T06:09:44.178Z,1535
2017-05-29T06:10:24.857Z,1570
2017-05-29T06:11:05.461Z,1750
2017-05-29T06:11:46.309Z,1440
2017-05-29T06:12:27.004Z,1510
2017-05-29T06:13:07.656Z,1650
2017-05-29T06:13:48.314Z,1135
2017-05-29T06:14:28.907Z,1085
2017-05-29T06:15:09.500Z,695
2017-05-29T06:15:50.238Z,845
2017-05-29T06:16:30.833Z,1645
2017-05-29T06:17:11.434Z,1320
2017-05-29T06:17:52.106Z,1585
2017-05-29T06:18:32.701Z,915
2017-05-29T06:19:13.314Z,760
2017-05-29T06:19:53.923Z,790
2017-05-29T06:20:34.517Z,875
2017-05-29T06:21:15.112Z,1065
2017-05-29T06:21:55.717Z,1575
2017-05-29T06:22:36.316Z,1615
2017-05-29T06:23:16.955Z,1655
2017-05-29T06:23:57.540Z,1170
2017-05-29T06:24:38.135Z,605
2017-05-29T06:25:18.711Z,635
2017-05-29T06:25:59.306Z,785
2017-05-29T06:26:39.903Z,1265
2017-05-29T06:27:20.568Z,1475
2017-05-29T06:28:01.151Z,1630
2017-05-29T06:28:41.757Z,1830
2017-05-29T06:29:22.363Z,1800
2017-05-29T06:30:02.969Z,1555
2017-05-29T06:30:43.574Z,1680
2017-05-29T06:31:24.188Z,1735
2017-05-29T06:32:04.804Z,1740
2017-05-29T06:32:45.392Z,1780
2017-05-29T06:33:26.118Z,1830
2017-05-29T06:34:06.708Z,1765
2017-05-29T06:34:47.361Z,1730
2017-05-29T06:35:27.981Z,1725
2017-05-29T06:36:08.572Z,1695
2017-05-29T06:36:49.166Z,1700
2017-05-29T06:37:29.767Z,1705
2017-05-29T06:38:10.383Z,1705
2017-05-29T06:38:50.994Z,1730
2017-05-29T06:39:31.584Z,1775
2017-05-29T06:40:12.204Z,1805
2017-05-29T06:40:52.797Z,1860
2017-05-29T06:41:33.402Z,1770
2017-05-29T06:42:14.010Z,1750
2017-05-29T06:42:54.605Z,1665
2017-05-29T06:43:35.275Z,1745
2017-05-29T06:44:15.864Z,1775
2017-05-29T06:44:56.462Z,1725
2017-05-29T06:45:37.052Z,1660
2017-05-29T06:46:17.652Z,1655
2017-05-29T06:46:58.273Z,1650
2017-05-29T06:47:38.862Z,1695
2017-05-29T06:48:19.467Z,1745
2017-05-29T06:49:00.100Z,1790
2017-05-29T06:49:40.687Z,1775
2017-05-29T06:50:21.281Z,1780
2017-05-29T06:51:01.880Z,1740
2017-05-29T06:51:42.501Z,1815
2017-05-29T06:52:23.109Z,1785
2017-05-29T06:53:03.733Z,1770
2017-05-29T06:53:44.354Z,1805
2017-05-29T06:54:24.931Z,1760
2017-05-29T06:55:05.565Z,1640
2017-05-29T06:55:46.166Z,1630
2017-05-29T06:56:26.768Z,1690
2017-05-29T06:57:07.429Z,1700
2017-05-29T06:57:48.052Z,1695
2017-05-29T06:58:28.649Z,1760
2017-05-29T06:59:09.332Z,1740
2017-05-29T06:59:49.920Z,1680
2017-05-29T07:00:30.506Z,1690
2017-05-29T07:01:11.101Z,1635
2017-05-29T07:01:51.720Z,1620
2017-05-29T07:02:32.307Z,1575
2017-05-29T07:03:12.900Z,1485
2017-05-29T07:03:53.491Z,1345
2017-05-29T07:04:34.092Z,1320
2017-05-29T07:05:14.737Z,1295
2017-05-29T07:05:55.327Z,1230
2017-05-29T07:06:35.912Z,1130
2017-05-29T07:07:16.511Z,1045
2017-05-29T07:07:57.111Z,980
2017-05-29T07:08:37.707Z,925
2017-05-29T07:09:18.311Z,865
2017-05-29T07:09:58.910Z,815
2017-05-29T07:10:39.504Z,775
2017-05-29T07:11:20.102Z,750
2017-05-29T07:12:00.696Z,730
2017-05-29T07:12:41.294Z,700
2017-05-29T07:13:21.906Z,675
2017-05-29T07:14:02.536Z,645
2017-05-29T07:14:43.202Z,625
2017-05-29T07:15:23.804Z,615
2017-05-29T07:16:04.423Z,610
2017-05-29T07:16:45.026Z,605
2017-05-29T07:17:25.622Z,590
2017-05-29T07:18:06.220Z,585
2017-05-29T07:18:46.805Z,580
2017-05-29T07:19:27.391Z,575
2017-05-29T07:20:07.998Z,570
2017-05-29T07:20:48.593Z,570
2017-05-29T07:21:29.198Z,565
2017-05-29T07:22:09.800Z,565
2017-05-29T07:22:50.396Z,555
2017-05-29T07:23:31.001Z,555
2017-05-29T07:24:11.598Z,550
2017-05-29T07:24:52.184Z,555
2017-05-29T07:25:32.829Z,555
2017-05-29T07:26:13.449Z,560
2017-05-29T07:26:54.041Z,560
2017-05-29T07:27:34.648Z,560
2017-05-29T07:28:15.236Z,555
2017-05-29T07:28:55.825Z,555
2017-05-29T07:29:36.436Z,550
2017-05-29T07:30:17.029Z,545
2017-05-29T07:30:57.615Z,545
2017-05-29T07:31:38.207Z,540
2017-05-29T07:32:18.812Z,540
2017-05-29T07:32:59.409Z,540
2017-05-29T07:33:40.005Z,535
2017-05-29T07:34:20.606Z,535
2017-05-29T07:35:01.189Z,535
2017-05-29T07:35:41.829Z,535
2017-05-29T07:36:22.428Z,535
2017-05-29T07:37:03.040Z,530
2017-05-29T07:37:43.642Z,520
2017-05-29T07:38:24.260Z,525
2017-05-29T07:39:04.853Z,515
2017-05-29T07:39:45.449Z,515
2017-05-29T07:40:26.053Z,515
2017-05-29T07:41:06.640Z,510
2017-05-29T07:41:47.248Z,510
2017-05-29T07:42:27.855Z,515
2017-05-29T07:43:08.497Z,520
2017-05-29T07:43:49.102Z,515
2017-05-29T07:44:29.717Z,510
2017-05-29T07:45:10.343Z,515
2017-05-29T07:45:50.939Z,520
2017-05-29T07:46:31.528Z,525
2017-05-29T07:47:12.128Z,525
2017-05-29T07:47:52.719Z,525
2017-05-29T07:48:33.312Z,525
2017-05-29T07:49:13.914Z,515
2017-05-29T07:49:54.506Z,515
2017-05-29T07:50:35.091Z,515
2017-05-29T07:51:15.708Z,515
2017-05-29T07:51:56.314Z,520
2017-05-29T07:52:36.915Z,510
2017-05-29T07:53:17.509Z,510
2017-05-29T07:53:58.111Z,505
2017-05-29T07:54:38.727Z,495
2017-05-29T07:55:19.324Z,480
2017-05-29T07:55:59.911Z,475
2017-05-29T07:56:40.498Z,455
2017-05-29T07:57:21.100Z,425
2017-05-29T07:58:01.681Z,400
2017-05-29T07:58:42.288Z,385
2017-05-29T07:59:22.908Z,385
2017-05-29T08:00:03.525Z,380
2017-05-29T08:00:44.112Z,375
2017-05-29T08:01:24.713Z,375
2017-05-29T08:02:05.305Z,375
2017-05-29T08:02:45.904Z,365
2017-05-29T08:03:26.500Z,360
2017-05-29T08:04:07.108Z,360
2017-05-29T08:04:47.716Z,360
2017-05-29T08:05:28.305Z,360
2017-05-29T08:06:08.902Z,365
2017-05-29T08:06:49.513Z,360
2017-05-29T08:07:30.171Z,355
2017-05-29T08:08:10.768Z,350
2017-05-29T08:08:51.374Z,350
2017-05-29T08:09:31.978Z,345
2017-05-29T08:10:12.577Z,345
2017-05-29T08:10:53.173Z,340
2017-05-29T08:11:33.804Z,335
2017-05-29T08:12:14.407Z,330
2017-05-29T08:12:55.013Z,325
2017-05-29T08:13:35.604Z,325
2017-05-29T08:14:16.191Z,330
2017-05-29T08:14:56.775Z,320
2017-05-29T08:15:37.374Z,320
2017-05-29T08:16:17.957Z,310
2017-05-29T08:16:58.554Z,310
2017-05-29T08:17:39.161Z,305
2017-05-29T08:18:19.747Z,305
2017-05-29T08:19:00.344Z,305
2017-05-29T08:19:40.937Z,295
2017-05-29T08:20:21.513Z,290
2017-05-29T08:21:02.098Z,290
2017-05-29T08:21:42.674Z,285
2017-05-29T08:22:23.276Z,285
2017-05-29T08:23:03.877Z,285
2017-05-29T08:23:44.462Z,280
2017-05-29T08:24:25.056Z,280
2017-05-29T08:25:05.653Z,280
2017-05-29T08:25:46.251Z,275
2017-05-29T08:26:26.850Z,270
2017-05-29T08:27:07.477Z,270
2017-05-29T08:27:48.076Z,265
2017-05-29T08:28:28.691Z,265
2017-05-29T08:29:09.279Z,260
2017-05-29T08:29:49.861Z,260
2017-05-29T08:30:30.470Z,255
2017-05-29T08:31:11.077Z,255
2017-05-29T08:31:51.674Z,250
2017-05-29T08:32:33.144Z,250
2017-05-29T08:33:13.756Z,245
2017-05-29T08:33:54.371Z,245
2017-05-29T08:34:34.976Z,240
2017-05-29T08:35:18.701Z,240
2017-05-29T08:36:00.868Z,235
2017-05-29T08:36:41.524Z,240
2017-05-29T08:37:25.411Z,235
2017-05-29T08:38:06.010Z,230
2017-05-29T08:38:49.473Z,230
2017-05-29T08:39:30.085Z,230
2017-05-29T08:40:10.739Z,230
2017-05-29T08:40:51.895Z,230
2017-05-29T08:41:32.279Z,230
2017-05-29T08:42:12.890Z,225
2017-05-29T08:42:53.507Z,225
2017-05-29T08:43:34.109Z,210
2017-05-29T08:44:14.695Z,200
2017-05-29T08:44:55.285Z,200
2017-05-29T08:45:36.710Z,215
2017-05-29T08:46:18.379Z,210
2017-05-29T08:46:58.981Z,210
2017-05-29T08:47:39.831Z,205
2017-05-29T08:48:21.755Z,220
2017-05-29T08:49:02.416Z,220
2017-05-29T08:49:42.978Z,215
2017-05-29T08:50:25.819Z,210
2017-05-29T08:51:06.426Z,210
2017-05-29T08:51:47.024Z,205
2017-05-29T08:52:27.601Z,205
2017-05-29T08:53:08.236Z,200
2017-05-29T08:53:50.739Z,195
2017-05-29T08:54:34.248Z,195
2017-05-29T08:55:14.841Z,195
2017-05-29T08:55:55.430Z,190
2017-05-29T08:56:36.034Z,190
2017-05-29T08:57:16.619Z,190
2017-05-29T08:57:57.205Z,190
2017-05-29T08:58:37.834Z,185
2017-05-29T08:59:18.434Z,185
2017-05-29T08:59:59.023Z,185
2017-05-29T09:00:39.614Z,185
2017-05-29T09:01:20.222Z,185
2017-05-29T09:02:00.824Z,180
2017-05-29T09:02:41.427Z,180
2017-05-29T09:03:22.052Z,180
2017-05-29T09:04:02.639Z,180
2017-05-29T09:04:43.237Z,180
2017-05-29T09:05:23.837Z,175
2017-05-29T09:06:04.445Z,175
2017-05-29T09:06:45.050Z,175
2017-05-29T09:07:25.653Z,170
2017-05-29T09:08:06.247Z,170
2017-05-29T09:08:46.861Z,170
2017-05-29T09:09:27.510Z,170
2017-05-29T09:10:08.105Z,170
2017-05-29T09:10:48.723Z,170
2017-05-29T09:11:29.302Z,170
2017-05-29T09:12:09.918Z,165
2017-05-29T09:12:50.499Z,165
2017-05-29T09:13:31.171Z,165
2017-05-29T09:14:11.813Z,165
2017-05-29T09:14:52.421Z,165
2017-05-29T09:15:33.035Z,165
2017-05-29T09:16:13.643Z,165
2017-05-29T09:16:54.240Z,165
2017-05-29T09:17:34.870Z,165
2017-05-29T09:18:15.465Z,165
2017-05-29T09:18:56.053Z,165
2017-05-29T09:19:36.641Z,160
2017-05-29T09:20:17.237Z,160
2017-05-29T09:20:57.835Z,160
2017-05-29T09:21:38.454Z,160
2017-05-29T09:22:19.101Z,165
2017-05-29T09:22:59.679Z,160
2017-05-29T09:23:40.280Z,160
2017-05-29T09:24:20.864Z,160
2017-05-29T09:25:01.461Z,160
2017-05-29T09:25:42.052Z,160
2017-05-29T09:26:22.644Z,160
2017-05-29T09:27:03.251Z,165
2017-05-29T09:27:43.856Z,160
2017-05-29T09:28:24.459Z,160
2017-05-29T09:29:05.042Z,160
2017-05-29T09:29:45.651Z,160
2017-05-29T09:30:26.264Z,175
2017-05-29T09:31:06.859Z,180
2017-05-29T09:31:47.463Z,185
2017-05-29T09:32:28.063Z,190
2017-05-29T09:33:08.695Z,200
2017-05-29T09:33:49.368Z,205